sensor_id;sensor_type;location;lat;lon;timestamp;P1;durP1;ratioP1;P2;durP2;ratioP2
77432;SDS011;66752;48.576;8.876;2023-06-22T00:00:31;13.98;;;8.57;;
77432;SDS011;66752;48.576;8.876;2023-06-22T00:02:57;12.57;;;8.65;;
77432;SDS011;66752;48.576;8.876;2023-06-22T00:05:23;11.05;;;7.90;;
77432;SDS011;66752;48.576;8.876;2023-06-22T00:07:49;12.07;;;8.02;;
77432;SDS011;66752;48.576;8.876;2023-06-22T00:10:15;13.00;;;7.68;;
77432;SDS011;66752;48.576;8.876;2023-06-22T00:12:41;13.80;;;8.52;;
77432;SDS011;66752;48.576;8.876;2023-06-22T00:15:07;13.75;;;8.05;;
77432;SDS011;66752;48.576;8.876;2023-06-22T00:17:33;12.23;;;8.07;;
77432;SDS011;66752;48.576;8.876;2023-06-22T00:19:59;13.77;;;8.38;;
77432;SDS011;66752;48.576;8.876;2023-06-22T00:22:25;13.25;;;8.40;;
77432;SDS011;66752;48.576;8.876;2023-06-22T00:24:53;15.95;;;8.98;;
77432;SDS011;66752;48.576;8.876;2023-06-22T00:27:19;15.07;;;9.45;;
77432;SDS011;66752;48.576;8.876;2023-06-22T00:29:45;12.60;;;8.23;;
77432;SDS011;66752;48.576;8.876;2023-06-22T00:32:11;13.85;;;8.32;;
77432;SDS011;66752;48.576;8.876;2023-06-22T00:34:37;12.63;;;8.90;;
77432;SDS011;66752;48.576;8.876;2023-06-22T00:37:03;12.05;;;8.30;;
77432;SDS011;66752;48.576;8.876;2023-06-22T00:41:58;16.23;;;9.18;;
77432;SDS011;66752;48.576;8.876;2023-06-22T00:44:24;13.55;;;8.02;;
77432;SDS011;66752;48.576;8.876;2023-06-22T00:46:50;15.35;;;8.25;;
77432;SDS011;66752;48.576;8.876;2023-06-22T00:49:16;11.38;;;7.72;;
77432;SDS011;66752;48.576;8.876;2023-06-22T00:54:10;15.27;;;9.05;;
77432;SDS011;66752;48.576;8.876;2023-06-22T00:56:38;13.43;;;8.60;;
77432;SDS011;66752;48.576;8.876;2023-06-22T00:59:04;12.50;;;9.60;;
77432;SDS011;66752;48.576;8.876;2023-06-22T01:01:30;13.48;;;9.20;;
77432;SDS011;66752;48.576;8.876;2023-06-22T01:03:57;12.10;;;8.23;;
77432;SDS011;66752;48.576;8.876;2023-06-22T01:08:53;12.82;;;8.38;;
77432;SDS011;66752;48.576;8.876;2023-06-22T01:11:25;11.90;;;8.05;;
77432;SDS011;66752;48.576;8.876;2023-06-22T01:13:57;12.52;;;8.50;;
77432;SDS011;66752;48.576;8.876;2023-06-22T01:16:35;13.85;;;9.27;;
77432;SDS011;66752;48.576;8.876;2023-06-22T01:19:45;15.18;;;8.93;;
77432;SDS011;66752;48.576;8.876;2023-06-22T01:21:51;13.82;;;8.60;;
77432;SDS011;66752;48.576;8.876;2023-06-22T01:24:22;16.83;;;8.57;;
77432;SDS011;66752;48.576;8.876;2023-06-22T01:29:18;12.32;;;8.75;;
77432;SDS011;66752;48.576;8.876;2023-06-22T01:31:44;13.27;;;9.40;;
77432;SDS011;66752;48.576;8.876;2023-06-22T01:34:11;12.55;;;8.32;;
77432;SDS011;66752;48.576;8.876;2023-06-22T01:36:38;13.18;;;8.90;;
77432;SDS011;66752;48.576;8.876;2023-06-22T01:39:04;15.82;;;10.02;;
77432;SDS011;66752;48.576;8.876;2023-06-22T01:41:33;15.07;;;9.13;;
77432;SDS011;66752;48.576;8.876;2023-06-22T01:43:59;14.05;;;9.70;;
77432;SDS011;66752;48.576;8.876;2023-06-22T01:46:26;13.45;;;7.95;;
77432;SDS011;66752;48.576;8.876;2023-06-22T01:48:51;14.95;;;9.63;;
77432;SDS011;66752;48.576;8.876;2023-06-22T01:51:18;13.27;;;8.20;;
77432;SDS011;66752;48.576;8.876;2023-06-22T01:53:44;17.77;;;10.23;;
77432;SDS011;66752;48.576;8.876;2023-06-22T01:56:12;13.63;;;9.07;;
77432;SDS011;66752;48.576;8.876;2023-06-22T01:58:41;13.20;;;8.65;;
77432;SDS011;66752;48.576;8.876;2023-06-22T02:01:11;10.38;;;8.02;;
77432;SDS011;66752;48.576;8.876;2023-06-22T02:03:41;12.77;;;7.97;;
77432;SDS011;66752;48.576;8.876;2023-06-22T02:06:16;14.20;;;9.95;;
77432;SDS011;66752;48.576;8.876;2023-06-22T02:08:47;11.57;;;8.27;;
77432;SDS011;66752;48.576;8.876;2023-06-22T02:11:15;13.88;;;8.63;;
77432;SDS011;66752;48.576;8.876;2023-06-22T02:13:41;14.65;;;9.30;;
77432;SDS011;66752;48.576;8.876;2023-06-22T02:16:09;16.20;;;8.98;;
77432;SDS011;66752;48.576;8.876;2023-06-22T02:18:36;18.67;;;8.88;;
77432;SDS011;66752;48.576;8.876;2023-06-22T02:21:02;14.20;;;8.95;;
77432;SDS011;66752;48.576;8.876;2023-06-22T02:25:54;13.48;;;9.10;;
77432;SDS011;66752;48.576;8.876;2023-06-22T02:28:20;15.43;;;9.05;;
77432;SDS011;66752;48.576;8.876;2023-06-22T02:30:46;12.95;;;8.68;;
77432;SDS011;66752;48.576;8.876;2023-06-22T02:33:12;13.77;;;8.50;;
77432;SDS011;66752;48.576;8.876;2023-06-22T02:35:38;17.77;;;9.27;;
77432;SDS011;66752;48.576;8.876;2023-06-22T02:38:04;13.15;;;8.07;;
77432;SDS011;66752;48.576;8.876;2023-06-22T02:40:30;14.98;;;10.23;;
77432;SDS011;66752;48.576;8.876;2023-06-22T02:42:57;13.50;;;8.25;;
77432;SDS011;66752;48.576;8.876;2023-06-22T02:45:26;15.82;;;8.60;;
77432;SDS011;66752;48.576;8.876;2023-06-22T02:47:52;11.57;;;8.27;;
77432;SDS011;66752;48.576;8.876;2023-06-22T02:50:18;14.00;;;9.73;;
77432;SDS011;66752;48.576;8.876;2023-06-22T02:52:44;13.68;;;9.27;;
77432;SDS011;66752;48.576;8.876;2023-06-22T02:55:10;13.13;;;9.27;;
77432;SDS011;66752;48.576;8.876;2023-06-22T02:57:36;14.73;;;9.00;;
77432;SDS011;66752;48.576;8.876;2023-06-22T03:00:02;14.40;;;9.43;;
77432;SDS011;66752;48.576;8.876;2023-06-22T03:02:41;14.38;;;8.75;;
77432;SDS011;66752;48.576;8.876;2023-06-22T03:05:07;14.75;;;9.30;;
77432;SDS011;66752;48.576;8.876;2023-06-22T03:07:38;14.13;;;8.73;;
77432;SDS011;66752;48.576;8.876;2023-06-22T03:10:04;15.68;;;9.25;;
77432;SDS011;66752;48.576;8.876;2023-06-22T03:12:30;16.90;;;9.27;;
77432;SDS011;66752;48.576;8.876;2023-06-22T03:14:56;12.50;;;8.52;;
77432;SDS011;66752;48.576;8.876;2023-06-22T03:17:23;13.90;;;8.48;;
77432;SDS011;66752;48.576;8.876;2023-06-22T03:19:49;13.93;;;8.63;;
77432;SDS011;66752;48.576;8.876;2023-06-22T03:22:15;16.45;;;9.27;;
77432;SDS011;66752;48.576;8.876;2023-06-22T03:24:40;16.33;;;10.95;;
77432;SDS011;66752;48.576;8.876;2023-06-22T03:27:06;14.43;;;8.35;;
77432;SDS011;66752;48.576;8.876;2023-06-22T03:29:32;14.60;;;8.52;;
77432;SDS011;66752;48.576;8.876;2023-06-22T03:31:59;19.80;;;9.25;;
77432;SDS011;66752;48.576;8.876;2023-06-22T03:34:25;17.60;;;8.50;;
77432;SDS011;66752;48.576;8.876;2023-06-22T03:36:51;14.07;;;8.25;;
77432;SDS011;66752;48.576;8.876;2023-06-22T03:39:17;13.90;;;7.80;;
77432;SDS011;66752;48.576;8.876;2023-06-22T03:41:43;14.40;;;9.02;;
77432;SDS011;66752;48.576;8.876;2023-06-22T03:44:09;12.05;;;8.30;;
77432;SDS011;66752;48.576;8.876;2023-06-22T03:46:37;12.65;;;8.25;;
77432;SDS011;66752;48.576;8.876;2023-06-22T03:49:03;12.73;;;9.30;;
77432;SDS011;66752;48.576;8.876;2023-06-22T03:51:30;14.25;;;8.77;;
77432;SDS011;66752;48.576;8.876;2023-06-22T03:53:56;15.15;;;10.45;;
77432;SDS011;66752;48.576;8.876;2023-06-22T03:56:22;14.30;;;8.80;;
77432;SDS011;66752;48.576;8.876;2023-06-22T03:58:48;13.68;;;9.00;;
77432;SDS011;66752;48.576;8.876;2023-06-22T04:01:14;16.52;;;10.38;;
77432;SDS011;66752;48.576;8.876;2023-06-22T04:03:42;13.93;;;10.05;;
77432;SDS011;66752;48.576;8.876;2023-06-22T04:06:08;15.15;;;8.85;;
77432;SDS011;66752;48.576;8.876;2023-06-22T04:11:00;12.02;;;8.63;;
77432;SDS011;66752;48.576;8.876;2023-06-22T04:13:26;13.07;;;9.15;;
77432;SDS011;66752;48.576;8.876;2023-06-22T04:15:52;16.13;;;9.13;;
77432;SDS011;66752;48.576;8.876;2023-06-22T04:18:18;13.65;;;8.43;;
77432;SDS011;66752;48.576;8.876;2023-06-22T04:20:44;17.00;;;9.20;;
77432;SDS011;66752;48.576;8.876;2023-06-22T04:23:11;12.80;;;8.13;;
77432;SDS011;66752;48.576;8.876;2023-06-22T04:25:37;14.85;;;8.88;;
77432;SDS011;66752;48.576;8.876;2023-06-22T04:28:03;13.63;;;8.88;;
77432;SDS011;66752;48.576;8.876;2023-06-22T04:30:29;14.73;;;8.98;;
77432;SDS011;66752;48.576;8.876;2023-06-22T04:32:56;13.57;;;9.57;;
77432;SDS011;66752;48.576;8.876;2023-06-22T04:35:23;14.65;;;8.57;;
77432;SDS011;66752;48.576;8.876;2023-06-22T04:37:49;17.42;;;9.52;;
77432;SDS011;66752;48.576;8.876;2023-06-22T04:40:19;12.48;;;8.23;;
77432;SDS011;66752;48.576;8.876;2023-06-22T04:42:45;14.80;;;10.20;;
77432;SDS011;66752;48.576;8.876;2023-06-22T04:45:17;13.38;;;8.63;;
77432;SDS011;66752;48.576;8.876;2023-06-22T04:47:43;12.85;;;8.80;;
77432;SDS011;66752;48.576;8.876;2023-06-22T04:50:10;14.43;;;9.30;;
77432;SDS011;66752;48.576;8.876;2023-06-22T04:55:02;13.65;;;8.02;;
77432;SDS011;66752;48.576;8.876;2023-06-22T04:57:28;12.63;;;9.18;;
77432;SDS011;66752;48.576;8.876;2023-06-22T04:59:59;14.43;;;7.85;;
77432;SDS011;66752;48.576;8.876;2023-06-22T05:02:36;12.68;;;8.93;;
77432;SDS011;66752;48.576;8.876;2023-06-22T05:05:03;14.40;;;8.98;;
77432;SDS011;66752;48.576;8.876;2023-06-22T05:07:32;15.63;;;8.57;;
77432;SDS011;66752;48.576;8.876;2023-06-22T05:09:58;13.93;;;8.85;;
77432;SDS011;66752;48.576;8.876;2023-06-22T05:12:24;15.18;;;9.55;;
77432;SDS011;66752;48.576;8.876;2023-06-22T05:14:50;13.02;;;8.07;;
77432;SDS011;66752;48.576;8.876;2023-06-22T05:17:16;12.77;;;9.18;;
77432;SDS011;66752;48.576;8.876;2023-06-22T05:19:44;11.45;;;7.88;;
77432;SDS011;66752;48.576;8.876;2023-06-22T05:22:13;13.63;;;7.82;;
77432;SDS011;66752;48.576;8.876;2023-06-22T05:24:39;12.40;;;7.88;;
77432;SDS011;66752;48.576;8.876;2023-06-22T05:27:05;12.20;;;7.80;;
77432;SDS011;66752;48.576;8.876;2023-06-22T05:29:31;12.82;;;8.10;;
77432;SDS011;66752;48.576;8.876;2023-06-22T05:31:57;13.23;;;8.00;;
77432;SDS011;66752;48.576;8.876;2023-06-22T05:34:23;13.73;;;7.78;;
77432;SDS011;66752;48.576;8.876;2023-06-22T05:36:49;12.70;;;7.75;;
77432;SDS011;66752;48.576;8.876;2023-06-22T05:39:15;10.82;;;6.55;;
77432;SDS011;66752;48.576;8.876;2023-06-22T05:41:41;12.35;;;7.22;;
77432;SDS011;66752;48.576;8.876;2023-06-22T05:44:08;12.15;;;7.28;;
77432;SDS011;66752;48.576;8.876;2023-06-22T05:46:34;9.38;;;6.90;;
77432;SDS011;66752;48.576;8.876;2023-06-22T05:49:00;14.95;;;7.03;;
77432;SDS011;66752;48.576;8.876;2023-06-22T05:51:26;10.55;;;6.43;;
77432;SDS011;66752;48.576;8.876;2023-06-22T05:53:52;12.52;;;6.70;;
77432;SDS011;66752;48.576;8.876;2023-06-22T05:56:18;15.60;;;7.90;;
77432;SDS011;66752;48.576;8.876;2023-06-22T05:58:44;12.82;;;6.22;;
77432;SDS011;66752;48.576;8.876;2023-06-22T06:01:10;13.35;;;6.72;;
77432;SDS011;66752;48.576;8.876;2023-06-22T06:03:36;9.27;;;5.60;;
77432;SDS011;66752;48.576;8.876;2023-06-22T06:06:06;10.50;;;7.07;;
77432;SDS011;66752;48.576;8.876;2023-06-22T06:10:58;10.15;;;6.57;;
77432;SDS011;66752;48.576;8.876;2023-06-22T06:13:24;12.55;;;6.82;;
77432;SDS011;66752;48.576;8.876;2023-06-22T06:15:50;10.15;;;6.50;;
77432;SDS011;66752;48.576;8.876;2023-06-22T06:18:16;11.25;;;6.18;;
77432;SDS011;66752;48.576;8.876;2023-06-22T06:20:42;10.65;;;5.78;;
77432;SDS011;66752;48.576;8.876;2023-06-22T06:23:08;10.55;;;6.03;;
77432;SDS011;66752;48.576;8.876;2023-06-22T06:25:34;11.45;;;5.57;;
77432;SDS011;66752;48.576;8.876;2023-06-22T06:28:00;10.18;;;5.47;;
77432;SDS011;66752;48.576;8.876;2023-06-22T06:30:26;10.60;;;5.97;;
77432;SDS011;66752;48.576;8.876;2023-06-22T06:32:52;9.73;;;6.07;;
77432;SDS011;66752;48.576;8.876;2023-06-22T06:35:18;11.18;;;5.63;;
77432;SDS011;66752;48.576;8.876;2023-06-22T06:37:45;11.60;;;5.55;;
77432;SDS011;66752;48.576;8.876;2023-06-22T06:40:11;13.40;;;6.32;;
77432;SDS011;66752;48.576;8.876;2023-06-22T06:42:38;11.68;;;5.63;;
77432;SDS011;66752;48.576;8.876;2023-06-22T06:45:07;9.82;;;6.38;;
77432;SDS011;66752;48.576;8.876;2023-06-22T06:47:33;12.05;;;7.10;;
77432;SDS011;66752;48.576;8.876;2023-06-22T06:49:59;8.40;;;5.32;;
77432;SDS011;66752;48.576;8.876;2023-06-22T06:52:25;13.10;;;6.28;;
77432;SDS011;66752;48.576;8.876;2023-06-22T06:57:17;10.30;;;6.00;;
77432;SDS011;66752;48.576;8.876;2023-06-22T06:59:45;10.73;;;5.90;;
77432;SDS011;66752;48.576;8.876;2023-06-22T07:02:11;9.48;;;6.30;;
77432;SDS011;66752;48.576;8.876;2023-06-22T07:04:37;10.00;;;5.63;;
77432;SDS011;66752;48.576;8.876;2023-06-22T07:07:03;9.50;;;6.00;;
77432;SDS011;66752;48.576;8.876;2023-06-22T07:09:29;8.93;;;5.50;;
77432;SDS011;66752;48.576;8.876;2023-06-22T07:11:54;10.70;;;5.95;;
77432;SDS011;66752;48.576;8.876;2023-06-22T07:14:20;13.88;;;5.30;;
77432;SDS011;66752;48.576;8.876;2023-06-22T07:16:46;10.75;;;5.38;;
77432;SDS011;66752;48.576;8.876;2023-06-22T07:19:12;14.38;;;5.40;;
77432;SDS011;66752;48.576;8.876;2023-06-22T07:21:38;9.30;;;4.93;;
77432;SDS011;66752;48.576;8.876;2023-06-22T07:24:04;8.60;;;4.78;;
77432;SDS011;66752;48.576;8.876;2023-06-22T07:26:31;7.95;;;5.10;;
77432;SDS011;66752;48.576;8.876;2023-06-22T07:31:25;10.27;;;5.07;;
77432;SDS011;66752;48.576;8.876;2023-06-22T07:33:51;13.30;;;6.57;;
77432;SDS011;66752;48.576;8.876;2023-06-22T07:36:18;10.95;;;5.00;;
77432;SDS011;66752;48.576;8.876;2023-06-22T07:38:44;11.80;;;5.78;;
77432;SDS011;66752;48.576;8.876;2023-06-22T07:41:11;10.07;;;4.93;;
77432;SDS011;66752;48.576;8.876;2023-06-22T07:43:37;9.05;;;4.55;;
77432;SDS011;66752;48.576;8.876;2023-06-22T07:46:03;11.75;;;4.55;;
77432;SDS011;66752;48.576;8.876;2023-06-22T07:48:29;13.18;;;4.95;;
77432;SDS011;66752;48.576;8.876;2023-06-22T07:50:55;9.20;;;5.30;;
77432;SDS011;66752;48.576;8.876;2023-06-22T07:53:21;11.20;;;5.25;;
77432;SDS011;66752;48.576;8.876;2023-06-22T07:55:48;9.63;;;4.78;;
77432;SDS011;66752;48.576;8.876;2023-06-22T07:58:14;9.40;;;4.18;;
77432;SDS011;66752;48.576;8.876;2023-06-22T08:00:40;11.45;;;4.80;;
77432;SDS011;66752;48.576;8.876;2023-06-22T08:03:06;11.15;;;5.10;;
77432;SDS011;66752;48.576;8.876;2023-06-22T08:05:32;12.48;;;5.72;;
77432;SDS011;66752;48.576;8.876;2023-06-22T08:10:24;10.68;;;5.32;;
77432;SDS011;66752;48.576;8.876;2023-06-22T08:15:17;13.95;;;5.90;;
77432;SDS011;66752;48.576;8.876;2023-06-22T08:17:44;13.02;;;4.78;;
77432;SDS011;66752;48.576;8.876;2023-06-22T08:20:11;12.07;;;5.47;;
77432;SDS011;66752;48.576;8.876;2023-06-22T08:22:37;10.27;;;4.88;;
77432;SDS011;66752;48.576;8.876;2023-06-22T08:27:30;10.63;;;5.40;;
77432;SDS011;66752;48.576;8.876;2023-06-22T08:29:59;11.18;;;6.03;;
77432;SDS011;66752;48.576;8.876;2023-06-22T08:32:26;14.32;;;5.60;;
77432;SDS011;66752;48.576;8.876;2023-06-22T08:34:53;15.52;;;5.88;;
77432;SDS011;66752;48.576;8.876;2023-06-22T08:37:19;10.88;;;4.97;;
77432;SDS011;66752;48.576;8.876;2023-06-22T08:39:45;11.88;;;5.68;;
77432;SDS011;66752;48.576;8.876;2023-06-22T08:44:37;11.45;;;5.78;;
77432;SDS011;66752;48.576;8.876;2023-06-22T08:47:03;9.98;;;5.60;;
77432;SDS011;66752;48.576;8.876;2023-06-22T08:51:55;10.10;;;5.55;;
77432;SDS011;66752;48.576;8.876;2023-06-22T08:54:22;11.48;;;6.05;;
77432;SDS011;66752;48.576;8.876;2023-06-22T08:56:48;10.55;;;5.38;;
77432;SDS011;66752;48.576;8.876;2023-06-22T08:59:14;11.43;;;6.25;;
77432;SDS011;66752;48.576;8.876;2023-06-22T09:01:40;16.17;;;5.60;;
77432;SDS011;66752;48.576;8.876;2023-06-22T09:06:34;15.38;;;6.03;;
77432;SDS011;66752;48.576;8.876;2023-06-22T09:09:00;14.95;;;5.60;;
77432;SDS011;66752;48.576;8.876;2023-06-22T09:13:52;14.18;;;5.65;;
77432;SDS011;66752;48.576;8.876;2023-06-22T09:16:18;12.02;;;5.38;;
77432;SDS011;66752;48.576;8.876;2023-06-22T09:18:47;13.70;;;5.45;;
77432;SDS011;66752;48.576;8.876;2023-06-22T09:21:13;11.55;;;5.18;;
77432;SDS011;66752;48.576;8.876;2023-06-22T09:23:40;12.55;;;6.15;;
77432;SDS011;66752;48.576;8.876;2023-06-22T09:26:06;10.02;;;4.88;;
77432;SDS011;66752;48.576;8.876;2023-06-22T09:28:32;12.40;;;6.40;;
77432;SDS011;66752;48.576;8.876;2023-06-22T09:30:58;11.02;;;5.32;;
77432;SDS011;66752;48.576;8.876;2023-06-22T09:33:25;16.02;;;6.57;;
77432;SDS011;66752;48.576;8.876;2023-06-22T09:35:51;12.85;;;5.60;;
77432;SDS011;66752;48.576;8.876;2023-06-22T09:40:43;14.10;;;5.78;;
77432;SDS011;66752;48.576;8.876;2023-06-22T09:43:09;13.10;;;5.40;;
77432;SDS011;66752;48.576;8.876;2023-06-22T09:48:01;12.45;;;5.43;;
77432;SDS011;66752;48.576;8.876;2023-06-22T09:52:52;10.13;;;5.25;;
77432;SDS011;66752;48.576;8.876;2023-06-22T09:55:22;10.80;;;4.82;;
77432;SDS011;66752;48.576;8.876;2023-06-22T09:57:48;9.82;;;5.10;;
77432;SDS011;66752;48.576;8.876;2023-06-22T10:02:41;10.25;;;4.80;;
77432;SDS011;66752;48.576;8.876;2023-06-22T10:05:07;10.32;;;5.40;;
77432;SDS011;66752;48.576;8.876;2023-06-22T10:09:58;12.18;;;5.38;;
77432;SDS011;66752;48.576;8.876;2023-06-22T10:14:50;9.55;;;5.30;;
77432;SDS011;66752;48.576;8.876;2023-06-22T10:19:42;12.45;;;5.75;;
77432;SDS011;66752;48.576;8.876;2023-06-22T10:24:34;10.48;;;5.18;;
77432;SDS011;66752;48.576;8.876;2023-06-22T10:29:26;8.32;;;4.45;;
77432;SDS011;66752;48.576;8.876;2023-06-22T10:34:17;11.05;;;5.43;;
77432;SDS011;66752;48.576;8.876;2023-06-22T10:39:13;13.30;;;6.07;;
77432;SDS011;66752;48.576;8.876;2023-06-22T10:41:40;11.32;;;5.93;;
77432;SDS011;66752;48.576;8.876;2023-06-22T10:44:06;10.13;;;5.32;;
77432;SDS011;66752;48.576;8.876;2023-06-22T10:46:32;9.18;;;5.57;;
77432;SDS011;66752;48.576;8.876;2023-06-22T10:48:58;10.48;;;5.93;;
77432;SDS011;66752;48.576;8.876;2023-06-22T10:51:24;13.48;;;5.30;;
77432;SDS011;66752;48.576;8.876;2023-06-22T10:53:50;10.35;;;5.20;;
77432;SDS011;66752;48.576;8.876;2023-06-22T10:56:17;12.90;;;5.00;;
77432;SDS011;66752;48.576;8.876;2023-06-22T10:58:44;13.20;;;5.70;;
77432;SDS011;66752;48.576;8.876;2023-06-22T11:01:10;13.02;;;5.13;;
77432;SDS011;66752;48.576;8.876;2023-06-22T11:03:36;10.57;;;5.22;;
77432;SDS011;66752;48.576;8.876;2023-06-22T11:06:02;8.43;;;5.05;;
77432;SDS011;66752;48.576;8.876;2023-06-22T11:08:28;10.77;;;5.78;;
77432;SDS011;66752;48.576;8.876;2023-06-22T11:10:54;11.70;;;5.55;;
77432;SDS011;66752;48.576;8.876;2023-06-22T11:13:20;10.90;;;5.43;;
77432;SDS011;66752;48.576;8.876;2023-06-22T11:15:46;11.60;;;5.68;;
77432;SDS011;66752;48.576;8.876;2023-06-22T11:18:12;13.50;;;5.63;;
77432;SDS011;66752;48.576;8.876;2023-06-22T11:23:04;11.07;;;5.28;;
77432;SDS011;66752;48.576;8.876;2023-06-22T11:25:31;13.55;;;5.75;;
77432;SDS011;66752;48.576;8.876;2023-06-22T11:27:59;8.40;;;4.72;;
77432;SDS011;66752;48.576;8.876;2023-06-22T11:30:25;12.27;;;5.82;;
77432;SDS011;66752;48.576;8.876;2023-06-22T11:32:52;13.93;;;5.47;;
77432;SDS011;66752;48.576;8.876;2023-06-22T11:35:18;10.88;;;5.13;;
77432;SDS011;66752;48.576;8.876;2023-06-22T11:40:10;10.25;;;5.05;;
77432;SDS011;66752;48.576;8.876;2023-06-22T11:42:36;12.98;;;5.20;;
77432;SDS011;66752;48.576;8.876;2023-06-22T11:45:04;8.85;;;5.13;;
77432;SDS011;66752;48.576;8.876;2023-06-22T11:47:30;10.68;;;5.35;;
77432;SDS011;66752;48.576;8.876;2023-06-22T11:49:56;14.98;;;5.35;;
77432;SDS011;66752;48.576;8.876;2023-06-22T11:52:22;14.73;;;6.43;;
77432;SDS011;66752;48.576;8.876;2023-06-22T11:54:48;14.18;;;5.45;;
77432;SDS011;66752;48.576;8.876;2023-06-22T11:57:14;11.63;;;5.00;;
77432;SDS011;66752;48.576;8.876;2023-06-22T11:59:40;11.95;;;5.03;;
77432;SDS011;66752;48.576;8.876;2023-06-22T12:02:06;10.60;;;5.57;;
77432;SDS011;66752;48.576;8.876;2023-06-22T12:04:34;10.52;;;5.38;;
77432;SDS011;66752;48.576;8.876;2023-06-22T12:07:00;11.85;;;6.13;;
77432;SDS011;66752;48.576;8.876;2023-06-22T12:09:25;14.90;;;6.10;;
77432;SDS011;66752;48.576;8.876;2023-06-22T12:11:51;10.40;;;5.22;;
77432;SDS011;66752;48.576;8.876;2023-06-22T12:16:43;11.60;;;4.95;;
77432;SDS011;66752;48.576;8.876;2023-06-22T12:21:36;10.30;;;5.55;;
77432;SDS011;66752;48.576;8.876;2023-06-22T12:24:02;9.10;;;4.50;;
77432;SDS011;66752;48.576;8.876;2023-06-22T12:26:28;15.25;;;5.68;;
77432;SDS011;66752;48.576;8.876;2023-06-22T12:31:20;8.75;;;5.22;;
77432;SDS011;66752;48.576;8.876;2023-06-22T12:36:12;10.35;;;5.28;;
77432;SDS011;66752;48.576;8.876;2023-06-22T12:38:38;10.38;;;5.13;;
77432;SDS011;66752;48.576;8.876;2023-06-22T12:41:04;10.52;;;5.75;;
77432;SDS011;66752;48.576;8.876;2023-06-22T12:43:30;10.98;;;5.65;;
77432;SDS011;66752;48.576;8.876;2023-06-22T12:45:56;11.77;;;5.45;;
77432;SDS011;66752;48.576;8.876;2023-06-22T12:48:22;12.13;;;5.50;;
77432;SDS011;66752;48.576;8.876;2023-06-22T12:50:50;11.50;;;5.43;;
77432;SDS011;66752;48.576;8.876;2023-06-22T12:53:15;10.77;;;5.00;;
77432;SDS011;66752;48.576;8.876;2023-06-22T12:55:41;13.77;;;5.70;;
77432;SDS011;66752;48.576;8.876;2023-06-22T12:58:08;11.23;;;5.18;;
77432;SDS011;66752;48.576;8.876;2023-06-22T13:00:33;11.52;;;5.63;;
77432;SDS011;66752;48.576;8.876;2023-06-22T13:02:59;12.15;;;6.65;;
77432;SDS011;66752;48.576;8.876;2023-06-22T13:05:25;10.05;;;5.45;;
77432;SDS011;66752;48.576;8.876;2023-06-22T13:07:51;12.25;;;6.45;;
77432;SDS011;66752;48.576;8.876;2023-06-22T13:10:17;11.25;;;6.50;;
77432;SDS011;66752;48.576;8.876;2023-06-22T13:12:43;10.45;;;5.40;;
77432;SDS011;66752;48.576;8.876;2023-06-22T13:15:09;11.00;;;5.93;;
77432;SDS011;66752;48.576;8.876;2023-06-22T13:17:35;10.57;;;6.15;;
77432;SDS011;66752;48.576;8.876;2023-06-22T13:20:01;10.57;;;6.25;;
77432;SDS011;66752;48.576;8.876;2023-06-22T13:22:30;11.80;;;6.03;;
77432;SDS011;66752;48.576;8.876;2023-06-22T13:24:56;12.15;;;5.43;;
77432;SDS011;66752;48.576;8.876;2023-06-22T13:27:23;11.50;;;6.20;;
77432;SDS011;66752;48.576;8.876;2023-06-22T13:29:49;12.73;;;6.03;;
77432;SDS011;66752;48.576;8.876;2023-06-22T13:32:15;14.90;;;5.70;;
77432;SDS011;66752;48.576;8.876;2023-06-22T13:34:41;10.60;;;5.90;;
77432;SDS011;66752;48.576;8.876;2023-06-22T13:37:07;13.20;;;5.80;;
77432;SDS011;66752;48.576;8.876;2023-06-22T13:39:33;9.13;;;5.25;;
77432;SDS011;66752;48.576;8.876;2023-06-22T13:41:59;11.85;;;6.38;;
77432;SDS011;66752;48.576;8.876;2023-06-22T13:44:25;15.77;;;5.97;;
77432;SDS011;66752;48.576;8.876;2023-06-22T13:46:54;12.38;;;5.93;;
77432;SDS011;66752;48.576;8.876;2023-06-22T13:49:20;14.63;;;6.15;;
77432;SDS011;66752;48.576;8.876;2023-06-22T13:51:46;11.55;;;6.22;;
77432;SDS011;66752;48.576;8.876;2023-06-22T13:54:15;11.82;;;5.68;;
77432;SDS011;66752;48.576;8.876;2023-06-22T13:56:42;13.45;;;6.05;;
77432;SDS011;66752;48.576;8.876;2023-06-22T13:59:08;13.02;;;6.45;;
77432;SDS011;66752;48.576;8.876;2023-06-22T14:01:35;11.60;;;6.45;;
77432;SDS011;66752;48.576;8.876;2023-06-22T14:04:01;13.45;;;6.60;;
77432;SDS011;66752;48.576;8.876;2023-06-22T14:06:27;11.02;;;6.13;;
77432;SDS011;66752;48.576;8.876;2023-06-22T14:08:53;11.20;;;5.53;;
77432;SDS011;66752;48.576;8.876;2023-06-22T14:11:19;14.20;;;5.93;;
77432;SDS011;66752;48.576;8.876;2023-06-22T14:13:44;10.65;;;4.28;;
77432;SDS011;66752;48.576;8.876;2023-06-22T14:16:11;9.55;;;3.50;;
77432;SDS011;66752;48.576;8.876;2023-06-22T14:18:37;8.77;;;3.70;;
77432;SDS011;66752;48.576;8.876;2023-06-22T14:21:03;11.38;;;4.00;;
77432;SDS011;66752;48.576;8.876;2023-06-22T14:23:29;12.05;;;4.00;;
77432;SDS011;66752;48.576;8.876;2023-06-22T14:25:55;9.45;;;3.10;;
77432;SDS011;66752;48.576;8.876;2023-06-22T14:28:20;12.05;;;3.97;;
77432;SDS011;66752;48.576;8.876;2023-06-22T14:30:47;9.45;;;3.47;;
77432;SDS011;66752;48.576;8.876;2023-06-22T14:33:12;12.90;;;4.00;;
77432;SDS011;66752;48.576;8.876;2023-06-22T14:35:38;11.27;;;4.10;;
77432;SDS011;66752;48.576;8.876;2023-06-22T14:38:04;11.98;;;3.05;;
77432;SDS011;66752;48.576;8.876;2023-06-22T14:40:30;13.07;;;3.60;;
77432;SDS011;66752;48.576;8.876;2023-06-22T14:42:56;15.43;;;4.30;;
77432;SDS011;66752;48.576;8.876;2023-06-22T14:45:23;11.80;;;4.28;;
77432;SDS011;66752;48.576;8.876;2023-06-22T14:47:49;9.73;;;3.55;;
77432;SDS011;66752;48.576;8.876;2023-06-22T14:50:15;15.27;;;3.95;;
77432;SDS011;66752;48.576;8.876;2023-06-22T14:52:41;15.05;;;4.95;;
77432;SDS011;66752;48.576;8.876;2023-06-22T14:55:07;8.35;;;2.88;;
77432;SDS011;66752;48.576;8.876;2023-06-22T14:57:33;15.10;;;3.45;;
77432;SDS011;66752;48.576;8.876;2023-06-22T14:59:59;11.52;;;3.55;;
77432;SDS011;66752;48.576;8.876;2023-06-22T15:02:26;8.40;;;3.00;;
77432;SDS011;66752;48.576;8.876;2023-06-22T15:04:52;10.50;;;3.05;;
77432;SDS011;66752;48.576;8.876;2023-06-22T15:07:19;9.85;;;3.05;;
77432;SDS011;66752;48.576;8.876;2023-06-22T15:09:45;10.13;;;3.53;;
77432;SDS011;66752;48.576;8.876;2023-06-22T15:12:11;9.30;;;3.55;;
77432;SDS011;66752;48.576;8.876;2023-06-22T15:14:38;11.38;;;3.30;;
77432;SDS011;66752;48.576;8.876;2023-06-22T15:17:05;9.93;;;3.55;;
77432;SDS011;66752;48.576;8.876;2023-06-22T15:19:33;13.82;;;4.20;;
77432;SDS011;66752;48.576;8.876;2023-06-22T15:21:59;8.32;;;3.35;;
77432;SDS011;66752;48.576;8.876;2023-06-22T15:24:25;8.23;;;3.13;;
77432;SDS011;66752;48.576;8.876;2023-06-22T15:29:17;12.80;;;3.22;;
77432;SDS011;66752;48.576;8.876;2023-06-22T15:31:43;11.27;;;4.13;;
77432;SDS011;66752;48.576;8.876;2023-06-22T15:34:09;8.77;;;3.42;;
77432;SDS011;66752;48.576;8.876;2023-06-22T15:39:01;11.75;;;3.40;;
77432;SDS011;66752;48.576;8.876;2023-06-22T15:41:27;14.93;;;3.47;;
77432;SDS011;66752;48.576;8.876;2023-06-22T15:43:53;8.88;;;3.65;;
77432;SDS011;66752;48.576;8.876;2023-06-22T15:46:20;10.73;;;3.20;;
77432;SDS011;66752;48.576;8.876;2023-06-22T15:48:46;12.45;;;3.53;;
77432;SDS011;66752;48.576;8.876;2023-06-22T15:53:38;9.40;;;3.42;;
77432;SDS011;66752;48.576;8.876;2023-06-22T15:56:04;13.52;;;3.55;;
77432;SDS011;66752;48.576;8.876;2023-06-22T16:00:55;11.80;;;3.30;;
77432;SDS011;66752;48.576;8.876;2023-06-22T16:05:47;11.00;;;3.90;;